SNCZ weather

Ponte Nova Airport
Ponte Nova, Minas Gerais, Brazil

Public forecast

Using degrees Celsius for public forecast. Weather courtesy of forecast.io.

Closest aviation weather report (METAR) to Ponte Nova Airport

Report is more than 6 hours old.

Closest report is Usiminas Airport, 61.0 nm (113.0 km) NNE. Retrieved 2020/06/30 17:00 UTC (1 month ago):

SBIP 301700Z 07005KT 9999 OVC025 22/18 Q1018

Closest aviation forecast (TAF) to Ponte Nova Airport

Forecast is more than 12 hours old.

Closest forecast is Pampulha - Carlos Drummond de Andrade Airport, 67.1 nm (124.2 km) WNW. Retrieved 2012/03/26 18:12 UTC (8 years ago):

TAF SBBH 261639Z 2618/2706 09005KT 9999 SCT030 TX28/2618Z TN20/2705Z PROB30 2619/2624 8000 TSRA BKN035 FEW045CB RMK PGG